Terminal Aerodrome Forecast
Issued by NWS Shreveport, LA

Home | Current Version | Previous Version | Text Only | Print | Product List | Glossary On
Versions: 1 2 3 4 5 6 7 8 9 10 11 12 13 14 15 16 17 18 19 20
284
FTUS44 KSHV 231509 CCA
TAFELD
TAF COR
KELD 231509Z 2315/2412 35011KT P6SM SCT027 BKN035
      TEMPO 2315/2316 BKN029
     FM231700 35010KT P6SM BKN045
     FM232100 34009KT P6SM SKC
     FM240000 35003KT P6SM SKC=

USA.gov is the U.S. government's official web portal to all federal, state and local government web resources and services.